createdAt,value
2022-09-20T00:03:55.137Z,96430.50
2022-09-20T00:09:01.357Z,96425.16
2022-09-20T00:14:06.019Z,96417.16
2022-09-20T00:19:09.869Z,96423.16
2022-09-20T00:24:14.259Z,96432.81
2022-09-20T00:29:17.019Z,96440.69
2022-09-20T00:34:37.307Z,96437.34
2022-09-20T00:39:41.462Z,96438.34
2022-09-20T00:44:48.907Z,96435.56
2022-09-20T00:49:54.299Z,96429.47
2022-09-20T00:54:59.462Z,96435.84
2022-09-20T01:00:03.937Z,96431.16
2022-09-20T01:05:09.492Z,96429.03
2022-09-20T01:10:13.618Z,96433.66
2022-09-20T01:15:16.873Z,96429.03
2022-09-20T01:20:23.753Z,96432.84
2022-09-20T01:25:45.084Z,96430.22
2022-09-20T01:30:53.349Z,96424.56
2022-09-20T01:35:59.273Z,96433.31
2022-09-20T01:41:09.012Z,96430.50
2022-09-20T01:46:23.097Z,96422.72
2022-09-20T01:51:53.302Z,96417.06
2022-09-20T01:57:32.459Z,96411.28
2022-09-20T02:03:07.637Z,96416.13
2022-09-20T02:08:29.801Z,96411.38
2022-09-20T02:13:41.294Z,96415.88
2022-09-20T02:19:03.308Z,96407.25
2022-09-20T02:24:17.658Z,96416.00
2022-09-20T02:29:33.384Z,96410.34
2022-09-20T02:34:56.427Z,96410.69
2022-09-20T02:40:23.699Z,96404.81
2022-09-20T02:45:34.108Z,96406.69
2022-09-20T02:50:46.461Z,96407.88
2022-09-20T02:56:02.302Z,96406.25
2022-09-20T03:01:14.271Z,96411.28
2022-09-20T03:06:25.519Z,96408.22
2022-09-20T03:11:36.473Z,96415.38
2022-09-20T03:16:52.199Z,96416.13
2022-09-20T03:22:04.565Z,96409.97
2022-09-20T03:27:18.365Z,96421.75
2022-09-20T03:32:35.269Z,96419.16
2022-09-20T03:37:58.426Z,96421.25
2022-09-20T03:43:11.562Z,96410.63
2022-09-20T03:48:36.997Z,96418.66
2022-09-20T03:54:04.869Z,96408.03
2022-09-20T03:59:27.792Z,96417.91
2022-09-20T04:04:40.661Z,96420.19
2022-09-20T04:10:13.722Z,96424.06
2022-09-20T04:15:31.287Z,96417.25
2022-09-20T04:20:41.203Z,96424.78
2022-09-20T04:25:48.716Z,96423.00
2022-09-20T04:30:56.707Z,96417.47
2022-09-20T04:36:30.204Z,96415.75
2022-09-20T04:42:08.566Z,96413.41
2022-09-20T04:47:46.565Z,96425.59
2022-09-20T04:53:18.377Z,96425.31
2022-09-20T04:58:56.943Z,96430.97
2022-09-20T05:04:29.862Z,96436.56
2022-09-20T05:09:53.573Z,96441.25
2022-09-20T05:15:21.027Z,96429.34
2022-09-20T05:20:55.112Z,96445.94
2022-09-20T05:26:11.818Z,96448.00
2022-09-20T05:31:19.375Z,96463.56
2022-09-20T05:36:34.539Z,96444.41
2022-09-20T05:41:47.196Z,96453.13
2022-09-20T05:46:58.711Z,96462.03
2022-09-20T05:52:15.417Z,96453.47
2022-09-20T05:57:29.923Z,96466.47
2022-09-20T06:02:41.292Z,96460.44
2022-09-20T06:07:57.003Z,96465.78
2022-09-20T06:13:13.061Z,96473.63
2022-09-20T06:18:25.313Z,96468.06
2022-09-20T06:23:28.752Z,96461.97
2022-09-20T06:28:35.954Z,96471.91
2022-09-20T06:33:45.034Z,96480.13
2022-09-20T06:39:17.630Z,96475.72
2022-09-20T06:44:21.744Z,96478.34
2022-09-20T06:49:29.115Z,96483.06
2022-09-20T06:54:31.900Z,96479.44
2022-09-20T06:59:36.011Z,96483.84
2022-09-20T07:04:39.066Z,96482.44
2022-09-20T07:09:41.796Z,96479.84
2022-09-20T07:14:45.889Z,96482.63
2022-09-20T07:19:48.639Z,96482.09
2022-09-20T07:24:51.390Z,96477.91
2022-09-20T07:29:56.067Z,96489.84
2022-09-20T07:34:59.166Z,96483.56
2022-09-20T07:40:02.335Z,96491.16
2022-09-20T07:45:07.877Z,96484.25
2022-09-20T07:50:11.679Z,96491.13
2022-09-20T07:55:14.579Z,96488.69
2022-09-20T08:00:19.111Z,96498.69
2022-09-20T08:05:21.830Z,96493.59
2022-09-20T08:10:25.232Z,96496.88
2022-09-20T08:15:29.759Z,96502.63
2022-09-20T08:20:33.422Z,96500.56
2022-09-20T08:25:36.300Z,96504.97
2022-09-20T08:30:40.625Z,96506.16
2022-09-20T08:35:43.366Z,96511.06
2022-09-20T08:40:46.556Z,96513.81
2022-09-20T08:45:50.880Z,96509.66
2022-09-20T08:50:53.734Z,96505.75
2022-09-20T08:55:57.841Z,96499.22
2022-09-20T09:01:02.265Z,96500.41
2022-09-20T09:06:10.320Z,96491.44
2022-09-20T09:11:16.662Z,96486.63
2022-09-20T09:16:28.578Z,96491.53
2022-09-20T09:21:34.486Z,96488.16
2022-09-20T09:26:39.208Z,96494.00
2022-09-20T09:31:45.086Z,96495.44
2022-09-20T09:36:47.952Z,96492.75
2022-09-20T09:41:51.039Z,96486.19
2022-09-20T09:46:56.515Z,96479.44
2022-09-20T09:52:13.049Z,96484.72
2022-09-20T09:57:38.542Z,96481.34
2022-09-20T10:02:50.776Z,96479.63
2022-09-20T10:08:00.924Z,96485.59
2022-09-20T10:13:19.914Z,96476.16
2022-09-20T10:18:35.660Z,96471.31
2022-09-20T10:24:08.837Z,96469.56
2022-09-20T10:29:23.106Z,96460.59
2022-09-20T10:35:07.187Z,96468.41
2022-09-20T10:40:26.010Z,96459.09
2022-09-20T10:51:02.362Z,96451.94
2022-09-20T10:56:23.761Z,96449.66
2022-09-20T11:01:34.634Z,96452.63
2022-09-20T11:06:50.364Z,96448.69
2022-09-20T11:11:59.975Z,96448.03
2022-09-20T11:17:09.404Z,96450.81
2022-09-20T11:22:16.937Z,96452.31
2022-09-20T11:27:29.618Z,96453.28
2022-09-20T11:32:41.839Z,96446.69
2022-09-20T11:37:52.206Z,96453.72
2022-09-20T11:42:58.641Z,96447.16
2022-09-20T11:48:08.011Z,96449.91
2022-09-20T11:53:26.138Z,96442.19
2022-09-20T11:58:31.604Z,96420.81
2022-09-20T12:03:37.872Z,96438.63
2022-09-20T12:08:42.951Z,96437.94
2022-09-20T12:13:59.182Z,96430.66
2022-09-20T12:19:07.060Z,96420.31
2022-09-20T12:24:22.745Z,96416.09
2022-09-20T12:30:05.010Z,96424.00
2022-09-20T12:35:44.481Z,96420.72
2022-09-20T12:41:00.399Z,96416.53
2022-09-20T12:46:09.878Z,96418.47
2022-09-20T12:51:40.434Z,96417.72
2022-09-20T12:56:46.672Z,96420.81
2022-09-20T13:01:51.114Z,96422.13
2022-09-20T13:07:33.204Z,96428.97
2022-09-20T13:12:40.332Z,96406.34
2022-09-20T13:17:45.794Z,96402.47
2022-09-20T13:22:49.199Z,96397.41
2022-09-20T13:27:58.352Z,96403.53
2022-09-20T13:38:32.505Z,96408.13
2022-09-20T13:43:40.852Z,96396.81
2022-09-20T13:48:43.929Z,96400.97
2022-09-20T13:53:48.487Z,96388.44
2022-09-20T13:58:52.624Z,96395.63
2022-09-20T14:03:56.169Z,96389.38
2022-09-20T14:09:05.969Z,96385.66
2022-09-20T14:14:17.548Z,96390.72
2022-09-20T14:19:31.289Z,96383.44
2022-09-20T14:24:37.237Z,96385.59
2022-09-20T14:29:43.070Z,96390.78
2022-09-20T14:34:48.037Z,96388.88
2022-09-20T14:39:56.182Z,96386.13
2022-09-20T14:44:59.569Z,96381.31
2022-09-20T14:50:03.874Z,96382.81
2022-09-20T14:55:22.905Z,96390.78
2022-09-20T15:00:27.070Z,96387.38
2022-09-20T15:05:30.002Z,96378.00
2022-09-20T15:10:34.141Z,96376.13
2022-09-20T15:15:36.912Z,96371.78
2022-09-20T15:20:39.648Z,96383.09
2022-09-20T15:25:43.815Z,96370.16
2022-09-20T15:30:47.430Z,96370.94
2022-09-20T15:35:50.658Z,96371.66
2022-09-20T15:40:55.348Z,96371.41
2022-09-20T15:46:00.530Z,96374.34
2022-09-20T15:51:06.625Z,96376.41
2022-09-20T15:56:19.184Z,96376.09
2022-09-20T16:01:22.059Z,96371.25
2022-09-20T16:06:25.939Z,96377.16
2022-09-20T16:11:30.125Z,96381.66
2022-09-20T16:16:39.166Z,96368.94
2022-09-20T16:21:44.741Z,96376.56
2022-09-20T16:26:48.799Z,96382.16
2022-09-20T16:31:52.263Z,96379.00
2022-09-20T16:36:58.526Z,96385.78
2022-09-20T16:42:04.833Z,96381.22
2022-09-20T16:47:11.702Z,96387.91
2022-09-20T16:52:14.468Z,96385.34
2022-09-20T16:57:18.822Z,96392.16
2022-09-20T17:02:21.540Z,96388.78
2022-09-20T17:07:24.329Z,96404.25
2022-09-20T17:12:32.566Z,96397.84
2022-09-20T17:17:35.395Z,96410.28
2022-09-20T17:22:38.190Z,96413.53
2022-09-20T17:27:42.291Z,96409.28
2022-09-20T17:32:50.430Z,96413.63
2022-09-20T17:37:53.203Z,96424.53
2022-09-20T17:42:57.678Z,96419.13
2022-09-20T17:48:00.414Z,96431.28
2022-09-20T17:53:03.152Z,96428.81
2022-09-20T17:58:07.761Z,96438.97
2022-09-20T18:03:10.473Z,96434.81
2022-09-20T18:08:13.807Z,96451.19
2022-09-20T18:13:18.080Z,96455.56
2022-09-20T18:18:20.921Z,96462.56
2022-09-20T18:23:23.690Z,96462.22
2022-09-20T18:28:28.184Z,96461.84
2022-09-20T18:33:31.700Z,96466.56
2022-09-20T18:38:34.466Z,96460.81
2022-09-20T18:43:38.627Z,96473.25
2022-09-20T18:48:41.359Z,96472.75
2022-09-20T18:53:44.084Z,96470.59
2022-09-20T18:58:48.536Z,96476.69
2022-09-20T19:04:01.233Z,96482.72
2022-09-20T19:09:09.423Z,96498.47
2022-09-20T19:14:20.182Z,96500.78
2022-09-20T19:19:39.266Z,96500.78
2022-09-20T19:25:03.373Z,96502.56
2022-09-20T19:30:09.079Z,96509.41
2022-09-20T19:35:19.958Z,96518.72
2022-09-20T19:40:29.914Z,96513.03
2022-09-20T19:45:44.534Z,96518.06
2022-09-20T19:50:52.543Z,96512.63
2022-09-20T19:56:00.770Z,96518.03
2022-09-20T20:01:05.490Z,96520.56
2022-09-20T20:06:17.599Z,96524.09
2022-09-20T20:11:34.064Z,96534.34
2022-09-20T20:16:51.859Z,96535.59
2022-09-20T20:21:59.354Z,96532.25
2022-09-20T20:27:02.198Z,96536.66
2022-09-20T20:32:06.427Z,96543.03
2022-09-20T20:37:09.843Z,96536.13
2022-09-20T20:42:12.877Z,96535.31
2022-09-20T20:47:17.098Z,96542.50
2022-09-20T20:52:19.942Z,96536.75
2022-09-20T20:57:22.676Z,96542.25
2022-09-20T21:02:26.842Z,96532.09
2022-09-20T21:07:29.641Z,96541.22
2022-09-20T21:12:32.378Z,96525.81
2022-09-20T21:17:36.516Z,96529.53
2022-09-20T21:22:39.231Z,96527.38
2022-09-20T21:27:42.082Z,96531.94
2022-09-20T21:32:46.181Z,96527.28
2022-09-20T21:37:49.392Z,96516.00
2022-09-20T21:42:53.069Z,96520.03
2022-09-20T21:47:57.422Z,96517.41
2022-09-20T21:53:00.153Z,96513.81
2022-09-20T21:58:03.278Z,96522.31
2022-09-20T22:03:07.705Z,96517.69
2022-09-20T22:08:10.590Z,96514.69
2022-09-20T22:13:13.313Z,96510.69
2022-09-20T22:18:17.517Z,96504.28
2022-09-20T22:23:20.383Z,96504.41
2022-09-20T22:28:23.092Z,96511.56
2022-09-20T22:33:27.169Z,96514.59
2022-09-20T22:38:31.387Z,96519.22
2022-09-20T22:43:35.451Z,96521.81
2022-09-20T22:48:40.255Z,96527.88
2022-09-20T22:53:43.361Z,96523.66
2022-09-20T22:58:48.051Z,96520.13
2022-09-20T23:03:56.702Z,96507.75
2022-09-20T23:09:01.858Z,96528.50
2022-09-20T23:14:06.020Z,96529.50
2022-09-20T23:19:10.941Z,96516.59
2022-09-20T23:24:17.192Z,96519.59
2022-09-20T23:29:19.878Z,96529.78
2022-09-20T23:34:24.030Z,96528.72
2022-09-20T23:39:26.874Z,96521.28
2022-09-20T23:44:29.552Z,96527.63
2022-09-20T23:49:33.630Z,96529.25
2022-09-20T23:54:36.320Z,96527.91
2022-09-20T23:59:39.285Z,96534.94
